Time;durP1;ratioP1;P1;durP2;ratioP2;P2;SDS_P1;SDS_P2;PMS_P1;PMS_P2;Temp;Humidity;BMP_temperature;BMP_pressure;BME280_temperature;BME280_humidity;BME280_pressure;Samples;Min_cycle;Max_cycle;Signal;HPM_P1;HPM_P2
2023/07/16 00:01:48;;;;;;;0.00;0.00;;;;;;;;;;5033453;28;20080;-85
2023/07/16 00:04:14;;;;;;;0.00;0.00;;;;;;;;;;5033460;28;20063;-85
2023/07/16 00:06:40;;;;;;;0.00;0.00;;;;;;;;;;5033444;28;20482;-85
2023/07/16 00:09:06;;;;;;;0.10;0.10;;;;;;;;;;5033348;28;20033;-85
2023/07/16 00:11:32;;;;;;;0.03;0.03;;;;;;;;;;5033187;28;20456;-85
2023/07/16 00:13:58;;;;;;;0.00;0.00;;;;;;;;;;5033201;28;20041;-85
2023/07/16 00:16:24;;;;;;;0.00;0.00;;;;;;;;;;5033303;28;20049;-85
2023/07/16 00:18:50;;;;;;;0.00;0.00;;;;;;;;;;5032492;28;20037;-86
2023/07/16 00:21:16;;;;;;;0.08;0.08;;;;;;;;;;5033030;28;20032;-85
2023/07/16 00:23:42;;;;;;;0.10;0.10;;;;;;;;;;5033018;28;20057;-85
2023/07/16 00:26:08;;;;;;;0.10;0.10;;;;;;;;;;5033148;28;20499;-85
2023/07/16 00:28:34;;;;;;;0.10;0.10;;;;;;;;;;5033165;28;20040;-85
2023/07/16 00:31:01;;;;;;;0.00;0.00;;;;;;;;;;5032523;28;20108;-86
2023/07/16 00:33:27;;;;;;;0.10;0.10;;;;;;;;;;5032925;28;20111;-86
2023/07/16 00:35:53;;;;;;;0.10;0.10;;;;;;;;;;5033160;28;20438;-85
2023/07/16 00:38:19;;;;;;;0.32;0.32;;;;;;;;;;5032332;28;20112;-86
2023/07/16 00:40:46;;;;;;;0.10;0.10;;;;;;;;;;5032815;28;20109;-86
2023/07/16 00:43:12;;;;;;;0.00;0.00;;;;;;;;;;5032734;28;20552;-86
2023/07/16 00:45:38;;;;;;;0.00;0.00;;;;;;;;;;5032854;28;20025;-85
2023/07/16 00:48:05;;;;;;;0.00;0.00;;;;;;;;;;5032620;28;20123;-85
2023/07/16 00:50:33;;;;;;;0.00;0.00;;;;;;;;;;5032447;28;20030;-85
2023/07/16 00:53:00;;;;;;;0.00;0.00;;;;;;;;;;5032162;28;20504;-85
2023/07/16 00:55:26;;;;;;;0.00;0.00;;;;;;;;;;5032532;28;20551;-86
2023/07/16 00:57:55;;;;;;;0.10;0.10;;;;;;;;;;5032111;28;20352;-86
2023/07/16 01:00:21;;;;;;;0.10;0.10;;;;;;;;;;5032452;28;20416;-86
2023/07/16 01:02:47;;;;;;;0.10;0.10;;;;;;;;;;5032505;28;20421;-86
2023/07/16 01:05:13;;;;;;;0.00;0.00;;;;;;;;;;5032374;28;20029;-86
2023/07/16 01:07:43;;;;;;;0.10;0.10;;;;;;;;;;5031938;28;20097;-86
2023/07/16 01:10:09;;;;;;;0.17;0.17;;;;;;;;;;5032990;28;20029;-85
2023/07/16 01:12:36;;;;;;;0.10;0.10;;;;;;;;;;5032971;28;20485;-86
2023/07/16 01:15:02;;;;;;;0.05;0.05;;;;;;;;;;5032304;28;20029;-86
2023/07/16 01:17:28;;;;;;;0.20;0.10;;;;;;;;;;5032091;28;20049;-86
2023/07/16 01:19:54;;;;;;;0.08;0.08;;;;;;;;;;5032180;28;20029;-86
2023/07/16 01:22:28;;;;;;;0.13;0.13;;;;;;;;;;5031660;28;20025;-86
2023/07/16 01:25:01;;;;;;;0.08;0.08;;;;;;;;;;5032087;28;20037;-86
2023/07/16 01:27:53;;;;;;;0.10;0.10;;;;;;;;;;5033262;28;20436;-85
2023/07/16 01:30:19;;;;;;;0.10;0.10;;;;;;;;;;5033882;28;20053;-86
2023/07/16 01:32:46;;;;;;;0.00;0.00;;;;;;;;;;5036261;28;20029;-86
2023/07/16 01:35:12;;;;;;;0.00;0.00;;;;;;;;;;5036172;28;20017;-86
2023/07/16 01:37:38;;;;;;;0.00;0.00;;;;;;;;;;5036109;28;20049;-86
2023/07/16 01:40:08;;;;;;;0.00;0.00;;;;;;;;;;5037091;28;20455;-86
2023/07/16 01:42:34;;;;;;;0.30;0.10;;;;;;;;;;5036392;28;20030;-85
2023/07/16 01:45:00;;;;;;;0.17;0.17;;;;;;;;;;5036400;28;20481;-86
2023/07/16 01:47:29;;;;;;;0.00;0.00;;;;;;;;;;5036048;28;20108;-86
2023/07/16 01:49:55;;;;;;;0.00;0.00;;;;;;;;;;5035495;28;20494;-86
2023/07/16 01:52:21;;;;;;;0.00;0.00;;;;;;;;;;5036277;28;20026;-86
2023/07/16 01:54:47;;;;;;;0.00;0.00;;;;;;;;;;5036084;28;20560;-86
2023/07/16 01:57:13;;;;;;;0.05;0.05;;;;;;;;;;5035557;28;20029;-86
2023/07/16 01:59:40;;;;;;;0.00;0.00;;;;;;;;;;5035763;28;20068;-86
2023/07/16 02:02:06;;;;;;;0.10;0.10;;;;;;;;;;5035821;28;20037;-86
2023/07/16 02:04:32;;;;;;;0.00;0.00;;;;;;;;;;5035578;28;20025;-86
2023/07/16 02:06:58;;;;;;;0.03;0.03;;;;;;;;;;5035719;28;20482;-86
2023/07/16 02:09:25;;;;;;;0.00;0.00;;;;;;;;;;5035590;28;20033;-86
2023/07/16 02:11:51;;;;;;;0.10;0.10;;;;;;;;;;5035941;28;20033;-86
2023/07/16 02:14:17;;;;;;;0.00;0.00;;;;;;;;;;5035503;28;20025;-86
2023/07/16 02:16:43;;;;;;;6.13;0.82;;;;;;;;;;5035287;28;20056;-86
2023/07/16 02:19:09;;;;;;;0.00;0.00;;;;;;;;;;5034915;28;20180;-86
2023/07/16 02:21:35;;;;;;;0.22;0.22;;;;;;;;;;5035322;28;20036;-86
2023/07/16 02:24:01;;;;;;;0.00;0.00;;;;;;;;;;5035037;28;20029;-86
2023/07/16 02:26:27;;;;;;;0.00;0.00;;;;;;;;;;5034902;28;20025;-86
2023/07/16 02:28:53;;;;;;;0.00;0.00;;;;;;;;;;5034068;28;20025;-86
2023/07/16 02:31:19;;;;;;;0.10;0.10;;;;;;;;;;5035041;28;20029;-86
2023/07/16 02:33:45;;;;;;;0.10;0.10;;;;;;;;;;5034613;28;20025;-86
2023/07/16 02:36:11;;;;;;;0.00;0.00;;;;;;;;;;5035312;28;20401;-86
2023/07/16 02:38:37;;;;;;;0.03;0.03;;;;;;;;;;5034834;28;20041;-86
2023/07/16 02:41:03;;;;;;;0.32;0.20;;;;;;;;;;5035097;28;20075;-86
2023/07/16 02:43:29;;;;;;;0.10;0.10;;;;;;;;;;5034237;28;20037;-86
2023/07/16 02:45:55;;;;;;;0.10;0.10;;;;;;;;;;5034889;28;20370;-86
2023/07/16 02:48:21;;;;;;;0.10;0.10;;;;;;;;;;5034893;28;20033;-86
2023/07/16 02:50:47;;;;;;;0.00;0.00;;;;;;;;;;5034663;28;20394;-86
2023/07/16 02:53:13;;;;;;;0.00;0.00;;;;;;;;;;5035269;28;20045;-86
2023/07/16 02:55:39;;;;;;;0.10;0.10;;;;;;;;;;5035016;28;20477;-86
2023/07/16 02:58:05;;;;;;;0.00;0.00;;;;;;;;;;5034428;28;20035;-85
2023/07/16 03:00:32;;;;;;;0.10;0.10;;;;;;;;;;5034460;28;20147;-86
2023/07/16 03:02:58;;;;;;;0.20;0.20;;;;;;;;;;5034357;28;20040;-86
2023/07/16 03:05:24;;;;;;;0.10;0.10;;;;;;;;;;5034403;28;20025;-86
2023/07/16 03:07:51;;;;;;;0.00;0.00;;;;;;;;;;5034655;28;20079;-86
2023/07/16 03:10:17;;;;;;;0.25;0.25;;;;;;;;;;5034248;28;20022;-86
2023/07/16 03:12:42;;;;;;;0.13;0.10;;;;;;;;;;5034286;28;20095;-86
2023/07/16 03:15:09;;;;;;;0.10;0.10;;;;;;;;;;5034162;28;20104;-85
2023/07/16 03:17:35;;;;;;;0.10;0.10;;;;;;;;;;5033903;28;20029;-86
2023/07/16 03:20:01;;;;;;;0.00;0.00;;;;;;;;;;5034525;28;20529;-86
2023/07/16 03:22:27;;;;;;;0.10;0.10;;;;;;;;;;5034008;28;20444;-86
2023/07/16 03:24:53;;;;;;;0.00;0.00;;;;;;;;;;5034290;28;20026;-86
2023/07/16 03:27:19;;;;;;;0.00;0.00;;;;;;;;;;5033878;28;20084;-86
2023/07/16 03:29:45;;;;;;;0.00;0.00;;;;;;;;;;5033886;28;20079;-86
2023/07/16 03:32:10;;;;;;;0.10;0.10;;;;;;;;;;5033796;28;20040;-86
2023/07/16 03:34:37;;;;;;;0.00;0.00;;;;;;;;;;5033919;28;20025;-86
2023/07/16 03:37:02;;;;;;;0.00;0.00;;;;;;;;;;5034109;28;20028;-86
2023/07/16 03:39:28;;;;;;;0.00;0.00;;;;;;;;;;5033824;28;20029;-86
2023/07/16 03:41:54;;;;;;;0.00;0.00;;;;;;;;;;5033755;28;20028;-86
2023/07/16 03:44:20;;;;;;;0.00;0.00;;;;;;;;;;5034259;28;20026;-86
2023/07/16 03:46:46;;;;;;;0.10;0.10;;;;;;;;;;5033423;28;20104;-86
2023/07/16 03:49:12;;;;;;;0.00;0.00;;;;;;;;;;5033694;28;20022;-86
2023/07/16 03:51:38;;;;;;;0.08;0.08;;;;;;;;;;5032272;28;20119;-86
2023/07/16 03:54:04;;;;;;;0.00;0.00;;;;;;;;;;5033070;28;20030;-86
2023/07/16 03:56:30;;;;;;;0.05;0.05;;;;;;;;;;5033570;28;20030;-85
2023/07/16 03:58:56;;;;;;;0.00;0.00;;;;;;;;;;5033497;28;20118;-86
2023/07/16 04:01:22;;;;;;;0.10;0.10;;;;;;;;;;5033583;28;20100;-86
2023/07/16 04:03:48;;;;;;;0.30;0.10;;;;;;;;;;5033459;28;20033;-86
2023/07/16 04:06:14;;;;;;;0.05;0.05;;;;;;;;;;5033470;28;20026;-86
2023/07/16 04:08:40;;;;;;;0.00;0.00;;;;;;;;;;5033387;28;20442;-85
2023/07/16 04:11:06;;;;;;;0.00;0.00;;;;;;;;;;5033253;28;20025;-85
2023/07/16 04:13:32;;;;;;;0.00;0.00;;;;;;;;;;5033352;28;20029;-86
2023/07/16 04:15:58;;;;;;;0.00;0.00;;;;;;;;;;5032696;28;20079;-85
2023/07/16 04:18:25;;;;;;;0.15;0.15;;;;;;;;;;5033420;28;20061;-85
2023/07/16 04:20:51;;;;;;;0.00;0.00;;;;;;;;;;5033317;28;20075;-85
2023/07/16 04:23:17;;;;;;;0.10;0.10;;;;;;;;;;5032997;28;20116;-85
2023/07/16 04:25:44;;;;;;;0.10;0.10;;;;;;;;;;5033106;28;20100;-86
2023/07/16 04:28:10;;;;;;;0.00;0.00;;;;;;;;;;5033036;28;20036;-86
2023/07/16 04:30:40;;;;;;;0.08;0.08;;;;;;;;;;5032984;28;20441;-85
2023/07/16 04:33:06;;;;;;;0.10;0.10;;;;;;;;;;5032495;28;20022;-85
2023/07/16 04:35:32;;;;;;;0.00;0.00;;;;;;;;;;5033342;28;20444;-85
2023/07/16 04:37:58;;;;;;;0.00;0.00;;;;;;;;;;5032734;28;20033;-86
2023/07/16 04:40:24;;;;;;;0.00;0.00;;;;;;;;;;5033804;28;20036;-85
2023/07/16 04:42:50;;;;;;;0.20;0.20;;;;;;;;;;5032868;28;20025;-86
2023/07/16 04:45:17;;;;;;;0.20;0.20;;;;;;;;;;5032452;28;20501;-86
2023/07/16 04:47:43;;;;;;;0.00;0.00;;;;;;;;;;5032982;28;20071;-86
2023/07/16 04:50:09;;;;;;;0.20;0.20;;;;;;;;;;5032400;28;20038;-85
2023/07/16 04:52:35;;;;;;;0.10;0.10;;;;;;;;;;5032643;28;20029;-85
2023/07/16 04:55:01;;;;;;;0.00;0.00;;;;;;;;;;5032621;28;20021;-86
2023/07/16 04:57:27;;;;;;;0.20;0.20;;;;;;;;;;5032397;28;20375;-86
2023/07/16 04:59:53;;;;;;;0.00;0.00;;;;;;;;;;5032063;28;20044;-85
2023/07/16 05:02:19;;;;;;;0.00;0.00;;;;;;;;;;5033185;28;20017;-86
2023/07/16 05:04:47;;;;;;;0.00;0.00;;;;;;;;;;5032240;28;20026;-85
2023/07/16 05:07:14;;;;;;;0.00;0.00;;;;;;;;;;5032784;28;20022;-86
2023/07/16 05:09:40;;;;;;;0.10;0.10;;;;;;;;;;5032347;28;20037;-85
2023/07/16 05:12:06;;;;;;;0.00;0.00;;;;;;;;;;5032371;28;20022;-85
2023/07/16 05:14:43;;;;;;;0.00;0.00;;;;;;;;;;5031986;28;20030;-86
2023/07/16 05:17:09;;;;;;;0.60;0.45;;;;;;;;;;5032723;28;20566;-86
2023/07/16 05:19:34;;;;;;;0.10;0.10;;;;;;;;;;5032256;28;20033;-86
2023/07/16 05:22:00;;;;;;;0.20;0.20;;;;;;;;;;5032033;28;20384;-86
2023/07/16 05:24:26;;;;;;;0.10;0.10;;;;;;;;;;5032463;28;20120;-86
2023/07/16 05:26:54;;;;;;;0.00;0.00;;;;;;;;;;5031984;28;20030;-85
2023/07/16 05:29:20;;;;;;;0.00;0.00;;;;;;;;;;5031719;28;20021;-86
2023/07/16 05:31:46;;;;;;;0.22;0.15;;;;;;;;;;5030867;28;20060;-86
2023/07/16 05:34:12;;;;;;;0.00;0.00;;;;;;;;;;5031969;28;20017;-86
2023/07/16 05:36:38;;;;;;;0.20;0.20;;;;;;;;;;5032315;28;20037;-86
2023/07/16 05:39:04;;;;;;;0.10;0.10;;;;;;;;;;5032094;28;20132;-86
2023/07/16 05:41:32;;;;;;;0.00;0.00;;;;;;;;;;5032051;28;20108;-85
2023/07/16 05:43:58;;;;;;;0.10;0.10;;;;;;;;;;5032227;28;20085;-85
2023/07/16 05:46:24;;;;;;;0.25;0.22;;;;;;;;;;5031723;28;20080;-86
2023/07/16 05:48:50;;;;;;;0.10;0.10;;;;;;;;;;5032062;28;20049;-86
2023/07/16 05:51:16;;;;;;;0.10;0.10;;;;;;;;;;5031842;28;20104;-86
2023/07/16 05:53:41;;;;;;;0.00;0.00;;;;;;;;;;5031917;28;20041;-86
2023/07/16 05:56:07;;;;;;;0.10;0.10;;;;;;;;;;5032379;28;20504;-86
2023/07/16 05:58:33;;;;;;;0.10;0.10;;;;;;;;;;5031227;28;20033;-86
2023/07/16 06:00:59;;;;;;;0.38;0.35;;;;;;;;;;5031862;28;20444;-86
2023/07/16 06:03:25;;;;;;;0.05;0.05;;;;;;;;;;5031785;28;20026;-85
2023/07/16 06:05:51;;;;;;;0.08;0.08;;;;;;;;;;5031730;28;20104;-86
2023/07/16 06:08:17;;;;;;;0.20;0.20;;;;;;;;;;5032208;28;20052;-86
2023/07/16 06:10:43;;;;;;;0.08;0.08;;;;;;;;;;5032666;28;20477;-86
2023/07/16 06:13:09;;;;;;;0.00;0.00;;;;;;;;;;5031628;28;20484;-85
2023/07/16 06:15:36;;;;;;;0.10;0.10;;;;;;;;;;5031663;28;20037;-86
2023/07/16 06:18:02;;;;;;;0.03;0.03;;;;;;;;;;5033847;28;20486;-85
2023/07/16 06:20:28;;;;;;;0.10;0.10;;;;;;;;;;5035865;28;20037;-86
2023/07/16 06:22:54;;;;;;;0.10;0.10;;;;;;;;;;5035313;28;20026;-86
2023/07/16 06:25:20;;;;;;;0.10;0.10;;;;;;;;;;5035264;28;20068;-85
2023/07/16 06:27:46;;;;;;;0.22;0.22;;;;;;;;;;5035210;28;20022;-86
2023/07/16 06:30:12;;;;;;;0.00;0.00;;;;;;;;;;5035997;28;20021;-86
2023/07/16 06:32:38;;;;;;;0.00;0.00;;;;;;;;;;5035144;28;20087;-86
2023/07/16 06:35:05;;;;;;;0.00;0.00;;;;;;;;;;5035149;28;20437;-85
2023/07/16 06:37:31;;;;;;;0.00;0.00;;;;;;;;;;5035099;28;20030;-86
2023/07/16 06:39:57;;;;;;;0.30;0.30;;;;;;;;;;5035382;28;20025;-85
2023/07/16 06:42:23;;;;;;;0.13;0.13;;;;;;;;;;5034840;28;20092;-85
2023/07/16 06:44:49;;;;;;;0.30;0.30;;;;;;;;;;5035409;28;20474;-85
2023/07/16 06:47:15;;;;;;;0.00;0.00;;;;;;;;;;5034827;28;20036;-85
2023/07/16 06:49:41;;;;;;;0.15;0.15;;;;;;;;;;5034597;28;20032;-85
2023/07/16 06:52:08;;;;;;;0.17;0.17;;;;;;;;;;5035311;28;20026;-85
2023/07/16 06:54:34;;;;;;;0.00;0.00;;;;;;;;;;5034409;28;20025;-85
2023/07/16 06:57:00;;;;;;;0.05;0.05;;;;;;;;;;5035025;28;20021;-85
2023/07/16 06:59:26;;;;;;;0.00;0.00;;;;;;;;;;5033601;28;20036;-85
2023/07/16 07:01:52;;;;;;;0.10;0.10;;;;;;;;;;5034533;28;20508;-85
2023/07/16 07:04:18;;;;;;;0.10;0.10;;;;;;;;;;5034729;28;20036;-85
2023/07/16 07:06:44;;;;;;;0.30;0.22;;;;;;;;;;5034472;28;20025;-85
2023/07/16 07:09:10;;;;;;;0.47;0.32;;;;;;;;;;5034530;28;20025;-86
2023/07/16 07:11:36;;;;;;;0.20;0.20;;;;;;;;;;5034492;28;20041;-85
2023/07/16 07:14:02;;;;;;;0.00;0.00;;;;;;;;;;5034713;28;20452;-85
2023/07/16 07:16:28;;;;;;;0.00;0.00;;;;;;;;;;5033985;28;20045;-85
2023/07/16 07:18:54;;;;;;;0.10;0.10;;;;;;;;;;5034747;28;20037;-85
2023/07/16 07:21:20;;;;;;;0.10;0.10;;;;;;;;;;5034203;28;20029;-86
2023/07/16 07:23:46;;;;;;;3.03;0.20;;;;;;;;;;5033896;28;20030;-85
2023/07/16 07:26:12;;;;;;;0.15;0.15;;;;;;;;;;5034479;28;20460;-85
2023/07/16 07:28:38;;;;;;;0.10;0.10;;;;;;;;;;5033888;28;20076;-85
2023/07/16 07:31:04;;;;;;;0.22;0.20;;;;;;;;;;5034971;28;20021;-85
2023/07/16 07:33:32;;;;;;;0.10;0.10;;;;;;;;;;5034069;28;20033;-85
2023/07/16 07:35:58;;;;;;;0.10;0.10;;;;;;;;;;5033864;28;20040;-85
2023/07/16 07:38:24;;;;;;;0.10;0.10;;;;;;;;;;5034005;28;20120;-85
2023/07/16 07:40:50;;;;;;;0.00;0.00;;;;;;;;;;5033944;28;20363;-85
2023/07/16 07:43:16;;;;;;;0.00;0.00;;;;;;;;;;5033725;28;20029;-86
2023/07/16 07:45:42;;;;;;;0.13;0.13;;;;;;;;;;5033782;28;20532;-86
2023/07/16 07:48:08;;;;;;;0.00;0.00;;;;;;;;;;5033782;28;20025;-85
2023/07/16 07:50:34;;;;;;;0.10;0.10;;;;;;;;;;5033563;28;20037;-85
2023/07/16 07:53:00;;;;;;;0.57;0.47;;;;;;;;;;5033346;28;20034;-86
2023/07/16 07:55:26;;;;;;;0.10;0.10;;;;;;;;;;5034183;28;20034;-85
2023/07/16 07:57:52;;;;;;;0.00;0.00;;;;;;;;;;5033852;28;20034;-85
2023/07/16 08:00:18;;;;;;;0.05;0.05;;;;;;;;;;5033437;28;20425;-85
2023/07/16 08:02:44;;;;;;;0.10;0.10;;;;;;;;;;5033605;28;20082;-86
2023/07/16 08:05:10;;;;;;;0.30;0.30;;;;;;;;;;5033459;28;20112;-86
2023/07/16 08:07:36;;;;;;;0.20;0.20;;;;;;;;;;5033520;28;20026;-87
2023/07/16 08:10:02;;;;;;;0.00;0.00;;;;;;;;;;5033355;28;20052;-87
2023/07/16 08:12:29;;;;;;;0.05;0.05;;;;;;;;;;5033075;28;20045;-87
2023/07/16 08:14:55;;;;;;;0.10;0.10;;;;;;;;;;5033287;28;20029;-87
2023/07/16 08:17:21;;;;;;;0.08;0.08;;;;;;;;;;5032902;28;20443;-87
2023/07/16 08:19:47;;;;;;;0.45;0.10;;;;;;;;;;5033168;28;20036;-87
2023/07/16 08:22:13;;;;;;;3.25;0.28;;;;;;;;;;5033035;28;20092;-87
2023/07/16 08:24:39;;;;;;;0.00;0.00;;;;;;;;;;5033282;28;20060;-86
2023/07/16 08:27:05;;;;;;;0.00;0.00;;;;;;;;;;5032899;28;20061;-87
2023/07/16 08:29:31;;;;;;;0.00;0.00;;;;;;;;;;5031757;28;20076;-87
2023/07/16 08:31:57;;;;;;;0.17;0.17;;;;;;;;;;5033103;28;20037;-85
2023/07/16 08:34:23;;;;;;;0.00;0.00;;;;;;;;;;5033442;28;20068;-85
2023/07/16 08:36:49;;;;;;;0.08;0.08;;;;;;;;;;5032463;28;20108;-85
2023/07/16 08:39:19;;;;;;;0.20;0.20;;;;;;;;;;5032520;28;20041;-86
2023/07/16 08:41:45;;;;;;;1.00;0.10;;;;;;;;;;5032423;28;20017;-85
2023/07/16 08:44:12;;;;;;;0.20;0.20;;;;;;;;;;5032811;28;20117;-85
2023/07/16 08:46:39;;;;;;;0.10;0.10;;;;;;;;;;5033070;28;20032;-85
2023/07/16 08:49:06;;;;;;;0.65;0.25;;;;;;;;;;5033179;28;20025;-86
2023/07/16 08:51:32;;;;;;;0.00;0.00;;;;;;;;;;5032460;28;20485;-85
2023/07/16 08:53:58;;;;;;;0.00;0.00;;;;;;;;;;5032597;28;20082;-86
2023/07/16 08:56:25;;;;;;;0.35;0.30;;;;;;;;;;5032276;28;20456;-86
2023/07/16 08:58:51;;;;;;;0.10;0.10;;;;;;;;;;5032835;28;20409;-86
2023/07/16 09:01:18;;;;;;;0.10;0.10;;;;;;;;;;5032344;28;20026;-86
2023/07/16 09:03:44;;;;;;;0.00;0.00;;;;;;;;;;5032428;28;20029;-85
2023/07/16 09:06:10;;;;;;;0.10;0.10;;;;;;;;;;5032075;28;20021;-85
2023/07/16 09:08:36;;;;;;;0.30;0.30;;;;;;;;;;5032333;28;20508;-86
2023/07/16 09:11:02;;;;;;;0.00;0.00;;;;;;;;;;5032496;28;20036;-86
2023/07/16 09:13:29;;;;;;;0.00;0.00;;;;;;;;;;5032384;28;20108;-86
2023/07/16 09:15:56;;;;;;;0.47;0.20;;;;;;;;;;5032013;28;20050;-86
2023/07/16 09:18:23;;;;;;;0.20;0.20;;;;;;;;;;5032503;28;20124;-86
2023/07/16 09:20:54;;;;;;;0.00;0.00;;;;;;;;;;5031862;28;20037;-85
2023/07/16 09:23:20;;;;;;;0.10;0.10;;;;;;;;;;5031954;28;20025;-86
2023/07/16 09:25:46;;;;;;;0.10;0.10;;;;;;;;;;5031921;28;20560;-86
2023/07/16 09:28:13;;;;;;;0.08;0.08;;;;;;;;;;5032548;28;20047;-85
2023/07/16 09:30:39;;;;;;;0.10;0.10;;;;;;;;;;5032502;28;20406;-85
2023/07/16 09:33:21;;;;;;;0.45;0.43;;;;;;;;;;5031926;28;20448;-85
2023/07/16 09:35:50;;;;;;;0.00;0.00;;;;;;;;;;5031225;28;20025;-85
2023/07/16 09:38:17;;;;;;;0.10;0.10;;;;;;;;;;5032296;28;20021;-86
2023/07/16 09:40:43;;;;;;;0.10;0.10;;;;;;;;;;5032356;28;20037;-86
2023/07/16 09:43:10;;;;;;;0.10;0.10;;;;;;;;;;5031968;28;20497;-85
2023/07/16 09:45:36;;;;;;;0.05;0.05;;;;;;;;;;5031910;28;20036;-86
2023/07/16 09:48:03;;;;;;;0.15;0.15;;;;;;;;;;5032302;28;20109;-85
2023/07/16 09:50:30;;;;;;;0.50;0.50;;;;;;;;;;5031479;28;20100;-85
2023/07/16 09:52:56;;;;;;;0.17;0.17;;;;;;;;;;5034287;28;20029;-86
2023/07/16 09:55:23;;;;;;;0.10;0.10;;;;;;;;;;5035807;28;20147;-86
2023/07/16 09:57:49;;;;;;;0.00;0.00;;;;;;;;;;5035658;28;20049;-86
2023/07/16 10:00:16;;;;;;;0.10;0.10;;;;;;;;;;5035799;28;20026;-86
2023/07/16 10:02:42;;;;;;;0.10;0.10;;;;;;;;;;5035784;28;20502;-86
2023/07/16 10:05:18;;;;;;;0.15;0.15;;;;;;;;;;5035320;28;20451;-86
2023/07/16 10:07:51;;;;;;;0.03;0.03;;;;;;;;;;5035826;28;20025;-86
2023/07/16 10:10:17;;;;;;;0.35;0.15;;;;;;;;;;5035580;28;20036;-86
2023/07/16 10:12:43;;;;;;;0.10;0.10;;;;;;;;;;5035354;28;20025;-86
2023/07/16 10:15:12;;;;;;;1.00;0.32;;;;;;;;;;5035294;28;20041;-85
2023/07/16 10:17:38;;;;;;;0.00;0.00;;;;;;;;;;5035024;28;20052;-85
2023/07/16 10:20:07;;;;;;;0.10;0.10;;;;;;;;;;5035856;28;20037;-86
2023/07/16 10:22:36;;;;;;;0.28;0.20;;;;;;;;;;5035118;28;20066;-86
2023/07/16 10:25:22;;;;;;;0.00;0.00;;;;;;;;;;5035076;28;20033;-86
2023/07/16 10:27:49;;;;;;;0.10;0.10;;;;;;;;;;5035552;28;20029;-86
2023/07/16 10:30:15;;;;;;;0.20;0.20;;;;;;;;;;5035211;28;20029;-85
2023/07/16 10:32:42;;;;;;;0.03;0.03;;;;;;;;;;5034543;28;20148;-85
2023/07/16 10:35:11;;;;;;;0.45;0.45;;;;;;;;;;5034974;28;20508;-85
2023/07/16 10:37:37;;;;;;;0.10;0.10;;;;;;;;;;5034633;28;20041;-86
2023/07/16 10:40:04;;;;;;;0.22;0.22;;;;;;;;;;5034855;28;20363;-85
2023/07/16 10:42:30;;;;;;;0.20;0.20;;;;;;;;;;5034858;28;20026;-85
2023/07/16 10:45:00;;;;;;;0.00;0.00;;;;;;;;;;5034867;28;20029;-85
2023/07/16 10:47:36;;;;;;;0.68;0.38;;;;;;;;;;5034484;28;20472;-85
2023/07/16 10:50:07;;;;;;;0.00;0.00;;;;;;;;;;5034922;28;20040;-85
2023/07/16 10:52:33;;;;;;;0.25;0.17;;;;;;;;;;5034329;28;20029;-85
2023/07/16 10:54:59;;;;;;;0.20;0.20;;;;;;;;;;5034850;28;20488;-85
2023/07/16 10:57:25;;;;;;;0.30;0.30;;;;;;;;;;5034399;28;20025;-85
2023/07/16 10:59:52;;;;;;;0.47;0.47;;;;;;;;;;5034338;28;20037;-85
2023/07/16 11:02:19;;;;;;;0.10;0.10;;;;;;;;;;5033792;28;20492;-86
2023/07/16 11:04:46;;;;;;;0.10;0.10;;;;;;;;;;5034511;28;20033;-85
2023/07/16 11:07:13;;;;;;;0.10;0.10;;;;;;;;;;5034197;28;20044;-85
2023/07/16 11:09:45;;;;;;;1.23;0.75;;;;;;;;;;5034304;28;20083;-86
2023/07/16 11:12:13;;;;;;;0.38;0.38;;;;;;;;;;5034245;28;20057;-85
2023/07/16 11:14:39;;;;;;;0.03;0.03;;;;;;;;;;5034239;28;20052;-85
2023/07/16 11:17:09;;;;;;;0.20;0.10;;;;;;;;;;5033681;28;20091;-85
2023/07/16 11:19:35;;;;;;;0.10;0.10;;;;;;;;;;5034634;28;20117;-85
2023/07/16 11:22:03;;;;;;;0.20;0.20;;;;;;;;;;5033929;28;20053;-85
2023/07/16 11:24:29;;;;;;;0.10;0.10;;;;;;;;;;5033957;28;20524;-85
2023/07/16 11:26:57;;;;;;;0.75;0.45;;;;;;;;;;5033851;28;20553;-86
2023/07/16 11:29:23;;;;;;;0.28;0.28;;;;;;;;;;5034254;28;20064;-85
2023/07/16 11:31:50;;;;;;;0.00;0.00;;;;;;;;;;5033477;28;20516;-85
2023/07/16 11:34:16;;;;;;;0.10;0.10;;;;;;;;;;5034047;28;20032;-85
2023/07/16 11:36:42;;;;;;;0.00;0.00;;;;;;;;;;5033465;28;20442;-85
2023/07/16 11:39:11;;;;;;;0.20;0.20;;;;;;;;;;5034039;28;20083;-85
2023/07/16 11:41:37;;;;;;;0.20;0.20;;;;;;;;;;5033863;28;20079;-86
2023/07/16 11:44:03;;;;;;;0.20;0.20;;;;;;;;;;5033641;28;20033;-85
2023/07/16 11:46:33;;;;;;;0.03;0.03;;;;;;;;;;5034296;28;20120;-85
2023/07/16 11:48:59;;;;;;;0.10;0.10;;;;;;;;;;5032238;28;20068;-85
2023/07/16 11:51:25;;;;;;;0.00;0.00;;;;;;;;;;5033567;28;20033;-85
2023/07/16 11:53:51;;;;;;;0.10;0.10;;;;;;;;;;5033446;28;20029;-85
2023/07/16 11:56:17;;;;;;;0.00;0.00;;;;;;;;;;5033489;28;20028;-85
2023/07/16 11:58:43;;;;;;;0.10;0.10;;;;;;;;;;5033921;28;20037;-85
2023/07/16 12:01:09;;;;;;;0.00;0.00;;;;;;;;;;5032817;28;20095;-86
2023/07/16 12:03:35;;;;;;;0.00;0.00;;;;;;;;;;5033442;28;20040;-85
2023/07/16 12:06:01;;;;;;;0.38;0.30;;;;;;;;;;5033031;28;20017;-85
2023/07/16 12:08:27;;;;;;;0.10;0.10;;;;;;;;;;5033605;28;20125;-85
2023/07/16 12:10:53;;;;;;;0.30;0.25;;;;;;;;;;5033116;28;20032;-84
2023/07/16 12:13:19;;;;;;;0.10;0.10;;;;;;;;;;5032535;28;20025;-86
2023/07/16 12:15:45;;;;;;;0.00;0.00;;;;;;;;;;5032127;28;20052;-85
2023/07/16 12:18:11;;;;;;;0.20;0.20;;;;;;;;;;5033174;28;20441;-85
2023/07/16 12:20:38;;;;;;;0.10;0.10;;;;;;;;;;5033152;28;20051;-85
2023/07/16 12:23:04;;;;;;;0.00;0.00;;;;;;;;;;5032855;28;20458;-85
2023/07/16 12:25:30;;;;;;;0.10;0.10;;;;;;;;;;5033027;28;20429;-86
2023/07/16 12:27:57;;;;;;;0.25;0.25;;;;;;;;;;5032365;28;20436;-85
2023/07/16 12:30:23;;;;;;;0.13;0.13;;;;;;;;;;5033023;28;20100;-85
2023/07/16 12:32:49;;;;;;;0.00;0.00;;;;;;;;;;5033155;28;20132;-85
2023/07/16 12:35:15;;;;;;;0.00;0.00;;;;;;;;;;5032552;28;20052;-86
2023/07/16 12:37:41;;;;;;;0.03;0.03;;;;;;;;;;5032432;28;20478;-85
2023/07/16 12:40:08;;;;;;;0.00;0.00;;;;;;;;;;5031454;28;20029;-85
2023/07/16 12:42:34;;;;;;;0.10;0.10;;;;;;;;;;5032566;28;20048;-86
2023/07/16 12:45:01;;;;;;;0.10;0.10;;;;;;;;;;5032501;28;20394;-86
2023/07/16 12:47:27;;;;;;;0.10;0.10;;;;;;;;;;5032756;28;20041;-86
2023/07/16 12:49:53;;;;;;;0.00;0.00;;;;;;;;;;5032145;28;20025;-86
2023/07/16 12:52:19;;;;;;;0.13;0.13;;;;;;;;;;5032504;28;20167;-86
2023/07/16 12:54:45;;;;;;;0.10;0.10;;;;;;;;;;5032798;28;20381;-86
2023/07/16 12:57:11;;;;;;;0.00;0.00;;;;;;;;;;5031984;28;20033;-86
2023/07/16 12:59:37;;;;;;;0.50;0.40;;;;;;;;;;5032609;28;20397;-86
2023/07/16 13:02:04;;;;;;;0.20;0.10;;;;;;;;;;5032599;28;20025;-86
2023/07/16 13:04:29;;;;;;;0.08;0.00;;;;;;;;;;5032102;28;20087;-86
2023/07/16 13:06:55;;;;;;;0.00;0.00;;;;;;;;;;5030863;28;20029;-86
2023/07/16 13:09:22;;;;;;;0.10;0.10;;;;;;;;;;5030853;28;20021;-86
2023/07/16 13:11:48;;;;;;;0.10;0.10;;;;;;;;;;5031781;28;20585;-86
2023/07/16 13:14:14;;;;;;;0.30;0.30;;;;;;;;;;5032583;28;20104;-86
2023/07/16 13:16:40;;;;;;;0.32;0.32;;;;;;;;;;5031760;28;20473;-86
2023/07/16 13:19:06;;;;;;;0.20;0.20;;;;;;;;;;5032009;28;20468;-86
2023/07/16 13:21:32;;;;;;;0.20;0.20;;;;;;;;;;5032093;28;20017;-86
2023/07/16 13:23:58;;;;;;;0.00;0.00;;;;;;;;;;5031823;28;20104;-86
2023/07/16 13:26:25;;;;;;;1.40;0.25;;;;;;;;;;5031269;28;20021;-86
2023/07/16 13:28:52;;;;;;;0.00;0.00;;;;;;;;;;5032278;28;20533;-86
2023/07/16 13:31:18;;;;;;;0.10;0.10;;;;;;;;;;5032056;28;20029;-86
2023/07/16 13:33:44;;;;;;;0.30;0.10;;;;;;;;;;5031936;28;20029;-86
2023/07/16 13:36:10;;;;;;;0.00;0.00;;;;;;;;;;5032198;28;20025;-86
2023/07/16 13:38:36;;;;;;;0.10;0.10;;;;;;;;;;5031713;28;20045;-86
2023/07/16 13:41:02;;;;;;;0.00;0.00;;;;;;;;;;5031390;28;20029;-86
2023/07/16 13:43:28;;;;;;;0.00;0.00;;;;;;;;;;5032297;28;20478;-86
2023/07/16 13:45:54;;;;;;;0.10;0.10;;;;;;;;;;5031510;28;20021;-86
2023/07/16 13:48:20;;;;;;;0.03;0.03;;;;;;;;;;5031831;28;20053;-86
2023/07/16 13:50:46;;;;;;;0.00;0.00;;;;;;;;;;5032078;28;20040;-86
2023/07/16 13:53:12;;;;;;;0.28;0.28;;;;;;;;;;5031890;28;20029;-85
2023/07/16 13:55:38;;;;;;;0.10;0.10;;;;;;;;;;5031349;28;20462;-85
2023/07/16 13:58:04;;;;;;;1.05;0.40;;;;;;;;;;5031570;28;20029;-86
2023/07/16 14:00:30;;;;;;;0.40;0.20;;;;;;;;;;5031894;28;20026;-85
2023/07/16 14:02:56;;;;;;;0.10;0.10;;;;;;;;;;5031598;28;20118;-85
2023/07/16 14:05:22;;;;;;;0.22;0.17;;;;;;;;;;5031571;28;20390;-85
2023/07/16 14:07:50;;;;;;;0.10;0.10;;;;;;;;;;5030222;28;20113;-86
2023/07/16 14:10:16;;;;;;;0.00;0.00;;;;;;;;;;5031242;28;20030;-85
2023/07/16 14:12:42;;;;;;;0.47;0.35;;;;;;;;;;5031410;28;20053;-85
2023/07/16 14:15:08;;;;;;;0.10;0.10;;;;;;;;;;5031333;28;20602;-85
2023/07/16 14:17:34;;;;;;;0.30;0.30;;;;;;;;;;5031536;28;20036;-85
2023/07/16 14:20:00;;;;;;;0.00;0.00;;;;;;;;;;5031911;28;20021;-85
2023/07/16 14:22:27;;;;;;;1.45;0.60;;;;;;;;;;5031298;28;20025;-85
2023/07/16 14:24:53;;;;;;;0.30;0.30;;;;;;;;;;5030857;28;20482;-86
2023/07/16 14:27:19;;;;;;;0.10;0.10;;;;;;;;;;5031274;28;20029;-85
2023/07/16 14:29:46;;;;;;;0.00;0.00;;;;;;;;;;5031177;28;20028;-86
2023/07/16 14:32:13;;;;;;;0.10;0.10;;;;;;;;;;5031661;28;20030;-85
2023/07/16 14:34:39;;;;;;;0.10;0.10;;;;;;;;;;5031213;28;20033;-86
2023/07/16 14:37:05;;;;;;;0.70;0.17;;;;;;;;;;5031068;28;20080;-86
2023/07/16 14:39:31;;;;;;;0.00;0.00;;;;;;;;;;5034169;28;20063;-86